Kootwijkerbroek, Netherlands
Current Conditions -  °F | °C
As of 12:55 AM on Thursday 23 Oct 2014 (Local Time) from EHDL Reporting Station
Broken Clouds Broken Clouds  
Wind Chill: 43°   Ceiling: 4600
Heat Index: 43°   Visibility: 6mi
Dew Point: 43°   Wind: 2mph
Humidity: 100%   Direction: 190°S
Pressure: 30.15"   Gusts: NA
Location:  52.15°N, 5.67°E
Report Text: EHDL 222255Z AUTO 19002KT 9999 SCT041 BKN046 BKN051 06/06 Q1021 BLU
Loading
Personal Weather Stations






























Interactive Weather Map
Tropical Storm Tracking
New forecast layout! Learn more

10-Day Weather Forecast

Advertisements
Track Severe Weather on mobile